Terminal Aerodrome Forecast
Issued by NWS

Home | Current Version | Previous Version | Text Only | Print | Product List | Glossary On
Versions: 1 2 3 4 5 6 7 8 9 10 11 12 13 14 15 16 17 18 19 20 21 22 23 24 25 26 27 28 29 30 31
000
FTUS44 KFWD 291140
TAFGKY
TAF
KGKY 291140Z 2912/3012 25014KT P6SM -RA VCTS SCT025CB OVC120
      TEMPO 2912/2913 5SM -TSRA BKN025CB
     FM291300 VRB10KT P6SM -RA VCTS SCT020CB OVC120
     FM291500 15010KT P6SM SCT030 BKN040
     FM300600 14010KT P6SM VCTS BKN060CB
     FM301100 14006KT P6SM VCSH OVC025=

USA.gov is the U.S. government's official web portal to all federal, state and local government web resources and services.